EVRA/RIX METAR and TAF weather

Enter ICAO airport designator
Station Type Date Time Source
EVRA METAR 2019/08/21 22:50 UTC NOAA

EVRA 212250Z 23003KT 210V270 CAVOK 12/12 Q1024 NOSIG


Station Type Date Time Source
EVRA Decoded METAR 2019/08/21 22:50 UTC NOAA

Station name not available
Aug 21, 2019 - 06:50 PM EDT / 2019.08.21 2250 UTC
Wind: from the SW (230 degrees) at 3 MPH (3 KT) (direction variable):0
Visibility: greater than 7 mile(s):0
Temperature: 53 F (12 C)
Dew Point: 53 F (12 C)
Relative Humidity: 100%
Pressure (altimeter): 30.24 in. Hg (1024 hPa)
ob: EVRA 212250Z 23003KT 210V270 CAVOK 12/12 Q1024 NOSIG
cycle: 23

Station Type Date Time Source
EVRA TAF 2019/08/21 21:03 UTC NOAA

TAF TAF EVRA 212000Z 2121/2221 26005KT 9999 SCT030
TEMPO 2121/2204 0600 FG VV001

Example: see airport list